createdAt,value
2023-08-08T00:01:25.966Z,76.03
2023-08-08T00:03:57.712Z,75.93
2023-08-08T00:06:29.470Z,75.97
2023-08-08T00:09:01.117Z,75.95
2023-08-08T00:11:33.206Z,75.83
2023-08-08T00:14:06.159Z,75.68
2023-08-08T00:16:40.571Z,75.58
2023-08-08T00:19:12.336Z,75.59
2023-08-08T00:21:44.026Z,75.71
2023-08-08T00:24:16.112Z,75.62
2023-08-08T00:26:47.796Z,75.58
2023-08-08T00:29:19.512Z,75.57
2023-08-08T00:31:51.274Z,75.46
2023-08-08T00:34:23.105Z,75.22
2023-08-08T00:36:54.915Z,75.20
2023-08-08T00:39:26.606Z,75.32
2023-08-08T00:41:58.597Z,75.25
2023-08-08T00:44:30.466Z,75.14
2023-08-08T00:47:02.230Z,75.18
2023-08-08T00:49:34.085Z,75.14
2023-08-08T00:52:08.106Z,75.11
2023-08-08T00:54:39.898Z,75.09
2023-08-08T00:57:11.577Z,75.00
2023-08-08T00:59:43.263Z,74.97
2023-08-08T01:02:15.214Z,74.89
2023-08-08T01:04:47.198Z,74.81
2023-08-08T01:07:28.874Z,74.85
2023-08-08T01:10:08.586Z,74.70
2023-08-08T01:12:44.025Z,74.61
2023-08-08T01:15:16.886Z,74.62
2023-08-08T01:17:50.140Z,74.41
2023-08-08T01:20:24.153Z,74.52
2023-08-08T01:23:05.882Z,74.51
2023-08-08T01:25:38.527Z,74.45
2023-08-08T01:28:10.683Z,74.51
2023-08-08T01:30:43.448Z,74.54
2023-08-08T01:33:15.226Z,74.51
2023-08-08T01:35:55.256Z,74.30
2023-08-08T01:38:32.962Z,74.38
2023-08-08T01:41:06.949Z,74.37
2023-08-08T01:43:39.845Z,74.42
2023-08-08T01:46:12.375Z,74.43
2023-08-08T01:48:48.748Z,74.40
2023-08-08T01:51:20.459Z,74.49
2023-08-08T01:53:52.232Z,74.54
2023-08-08T01:56:24.039Z,74.64
2023-08-08T01:58:55.773Z,74.66
2023-08-08T02:01:27.673Z,74.73
2023-08-08T02:03:59.535Z,74.71
2023-08-08T02:06:31.381Z,74.59
2023-08-08T02:09:03.257Z,74.63
2023-08-08T02:11:35.028Z,74.67
2023-08-08T02:14:06.794Z,74.66
2023-08-08T02:16:40.538Z,74.65
2023-08-08T02:19:12.215Z,74.76
2023-08-08T02:21:44.033Z,74.70
2023-08-08T02:24:15.786Z,74.68
2023-08-08T02:26:47.493Z,74.86
2023-08-08T02:29:19.205Z,74.91
2023-08-08T02:31:50.918Z,74.97
2023-08-08T02:34:22.668Z,74.93
2023-08-08T02:36:54.369Z,75.00
2023-08-08T02:39:26.100Z,74.98
2023-08-08T02:41:58.255Z,74.96
2023-08-08T02:44:31.678Z,74.95
2023-08-08T02:47:03.389Z,75.02
2023-08-08T02:49:35.552Z,75.08
2023-08-08T02:52:08.307Z,75.19
2023-08-08T02:54:39.978Z,75.21
2023-08-08T02:57:12.973Z,75.22
2023-08-08T02:59:44.712Z,75.33
2023-08-08T03:02:16.384Z,75.37
2023-08-08T03:04:48.071Z,75.51
2023-08-08T03:07:19.769Z,75.67
2023-08-08T03:09:51.477Z,75.66
2023-08-08T03:12:23.143Z,75.67
2023-08-08T03:14:54.921Z,75.59
2023-08-08T03:17:26.658Z,75.46
2023-08-08T03:19:58.350Z,75.51
2023-08-08T03:22:30.124Z,75.57
2023-08-08T03:25:01.921Z,75.58
2023-08-08T03:27:33.689Z,75.41
2023-08-08T03:30:06.251Z,75.20
2023-08-08T03:32:37.968Z,75.20
2023-08-08T03:35:11.537Z,75.26
2023-08-08T03:37:43.239Z,75.16
2023-08-08T03:40:16.051Z,75.17
2023-08-08T03:42:47.774Z,75.20
2023-08-08T03:45:19.645Z,75.19
2023-08-08T03:47:51.453Z,75.13
2023-08-08T03:50:23.590Z,75.04
2023-08-08T03:52:55.493Z,74.95
2023-08-08T03:55:27.256Z,74.95
2023-08-08T03:57:58.983Z,74.98
2023-08-08T04:00:30.741Z,74.82
2023-08-08T04:03:02.495Z,74.76
2023-08-08T04:05:34.504Z,74.90
2023-08-08T04:08:06.867Z,74.85
2023-08-08T04:10:38.597Z,74.76
2023-08-08T04:13:10.490Z,74.97
2023-08-08T04:15:42.201Z,74.72
2023-08-08T04:18:13.954Z,74.80
2023-08-08T04:20:47.345Z,74.75
2023-08-08T04:23:18.999Z,74.83
2023-08-08T04:25:50.684Z,74.76
2023-08-08T04:28:22.639Z,74.78
2023-08-08T04:30:54.368Z,74.52
2023-08-08T04:33:26.100Z,74.54
2023-08-08T04:35:57.798Z,74.27
2023-08-08T04:38:29.504Z,74.20
2023-08-08T04:41:01.382Z,74.12
2023-08-08T04:43:33.102Z,74.22
2023-08-08T04:46:04.848Z,74.20
2023-08-08T04:48:36.609Z,74.13
2023-08-08T04:51:10.644Z,73.92
2023-08-08T04:53:42.295Z,73.74
2023-08-08T04:56:14.114Z,73.62
2023-08-08T04:58:45.792Z,73.64
2023-08-08T05:01:19.066Z,73.74
2023-08-08T05:03:53.702Z,73.84
2023-08-08T05:06:27.064Z,73.67
2023-08-08T05:08:58.911Z,73.50
2023-08-08T05:11:30.712Z,73.12
2023-08-08T05:14:02.533Z,72.96
2023-08-08T05:16:34.309Z,72.98
2023-08-08T05:19:05.996Z,73.13
2023-08-08T05:21:37.931Z,73.30
2023-08-08T05:24:09.745Z,73.19
2023-08-08T05:26:41.452Z,73.08
2023-08-08T05:29:13.120Z,72.91
2023-08-08T05:31:44.764Z,73.75
2023-08-08T05:34:16.430Z,72.27
2023-08-08T05:36:49.230Z,71.17
2023-08-08T05:39:23.646Z,70.49
2023-08-08T05:41:55.528Z,70.06
2023-08-08T05:44:27.273Z,72.10
2023-08-08T05:46:58.929Z,71.61
2023-08-08T05:49:30.706Z,68.90
2023-08-08T05:52:03.786Z,68.12
2023-08-08T05:54:35.708Z,67.55
2023-08-08T05:57:09.066Z,66.07
2023-08-08T05:59:40.794Z,63.28
2023-08-08T06:02:12.457Z,60.99
2023-08-08T06:04:44.196Z,58.50
2023-08-08T06:07:15.890Z,56.73
2023-08-08T06:09:47.827Z,54.90
2023-08-08T06:12:19.549Z,52.61
2023-08-08T06:14:51.199Z,51.92
2023-08-08T06:17:24.624Z,50.67
2023-08-08T06:19:58.061Z,49.22
2023-08-08T06:22:29.877Z,47.94
2023-08-08T06:25:01.545Z,46.77
2023-08-08T06:27:33.404Z,45.17
2023-08-08T06:30:05.552Z,44.15
2023-08-08T06:32:37.357Z,43.25
2023-08-08T06:35:12.215Z,42.08
2023-08-08T06:37:44.057Z,41.04
2023-08-08T06:40:16.524Z,39.85
2023-08-08T06:42:48.228Z,39.17
2023-08-08T06:45:20.285Z,38.18
2023-08-08T06:47:52.075Z,36.86
2023-08-08T06:50:25.499Z,36.32
2023-08-08T06:52:57.156Z,35.74
2023-08-08T06:55:28.956Z,35.47
2023-08-08T06:58:00.661Z,34.12
2023-08-08T07:00:32.502Z,34.57
2023-08-08T07:03:04.495Z,33.88
2023-08-08T07:05:36.831Z,34.11
2023-08-08T07:08:09.964Z,34.48
2023-08-08T07:10:42.155Z,35.37
2023-08-08T07:13:13.982Z,36.06
2023-08-08T07:15:45.815Z,36.85
2023-08-08T07:18:17.656Z,37.78
2023-08-08T07:20:50.653Z,38.39
2023-08-08T07:23:22.390Z,38.94
2023-08-08T07:25:54.329Z,39.43
2023-08-08T07:28:26.208Z,39.98
2023-08-08T07:30:58.051Z,40.87
2023-08-08T07:33:29.898Z,41.60
2023-08-08T07:36:01.712Z,42.04
2023-08-08T07:38:34.239Z,42.35
2023-08-08T07:41:06.095Z,42.57
2023-08-08T07:43:37.877Z,43.02
2023-08-08T07:46:09.773Z,44.09
2023-08-08T07:48:41.497Z,44.21
2023-08-08T07:51:13.202Z,44.69
2023-08-08T07:53:47.260Z,45.29
2023-08-08T07:56:19.205Z,45.20
2023-08-08T07:58:50.928Z,45.11
2023-08-08T08:01:23.036Z,45.35
2023-08-08T08:03:54.927Z,45.80
2023-08-08T08:06:26.609Z,46.24
2023-08-08T08:08:58.430Z,46.20
2023-08-08T08:11:30.243Z,46.42
2023-08-08T08:14:02.131Z,46.88
2023-08-08T08:16:34.174Z,47.58
2023-08-08T08:19:05.984Z,48.22
2023-08-08T08:21:37.663Z,48.85
2023-08-08T08:24:10.229Z,49.38
2023-08-08T08:26:41.936Z,49.31
2023-08-08T08:29:13.737Z,49.27
2023-08-08T08:31:45.477Z,48.87
2023-08-08T08:34:17.206Z,48.50
2023-08-08T08:36:48.929Z,48.42
2023-08-08T08:39:20.832Z,48.07
2023-08-08T08:41:56.643Z,47.99
2023-08-08T08:44:29.895Z,47.87
2023-08-08T08:47:03.578Z,47.72
2023-08-08T08:49:37.124Z,47.89
2023-08-08T08:52:09.144Z,48.22
2023-08-08T08:54:40.999Z,47.66
2023-08-08T08:57:13.617Z,47.54
2023-08-08T08:59:45.489Z,47.55
2023-08-08T09:02:18.205Z,47.86
2023-08-08T09:04:50.450Z,48.94
2023-08-08T09:07:26.993Z,50.03
2023-08-08T09:09:58.744Z,51.09
2023-08-08T09:12:30.943Z,52.15
2023-08-08T09:15:05.221Z,52.62
2023-08-08T09:17:47.224Z,53.21
2023-08-08T09:20:20.519Z,53.55
2023-08-08T09:22:53.557Z,53.77
2023-08-08T09:25:25.768Z,54.47
2023-08-08T09:27:57.776Z,54.67
2023-08-08T09:30:31.027Z,55.30
2023-08-08T09:33:05.167Z,55.45
2023-08-08T09:35:40.017Z,55.33
2023-08-08T09:38:11.779Z,55.26
2023-08-08T09:40:44.553Z,55.56
2023-08-08T09:43:16.768Z,55.32
2023-08-08T09:45:51.284Z,55.38
2023-08-08T09:48:23.641Z,55.84
2023-08-08T09:50:55.493Z,56.21
2023-08-08T09:53:27.872Z,55.97
2023-08-08T09:56:00.123Z,55.65
2023-08-08T09:58:32.131Z,55.99
2023-08-08T10:01:05.876Z,55.83
2023-08-08T10:03:39.015Z,54.99
2023-08-08T10:06:11.413Z,54.17
2023-08-08T10:08:46.749Z,53.91
2023-08-08T10:11:20.350Z,52.55
2023-08-08T10:13:52.898Z,52.29
2023-08-08T10:16:25.918Z,52.21
2023-08-08T10:19:02.573Z,51.48
2023-08-08T10:21:37.972Z,51.43
2023-08-08T10:24:11.746Z,51.66
2023-08-08T10:26:58.901Z,50.75
2023-08-08T10:29:32.952Z,50.19
2023-08-08T10:32:06.637Z,50.22
2023-08-08T10:34:43.893Z,50.11
2023-08-08T10:37:16.724Z,50.27
2023-08-08T10:40:00.052Z,49.45
2023-08-08T10:42:33.205Z,47.84
2023-08-08T10:45:06.439Z,47.72
2023-08-08T10:47:39.827Z,49.57
2023-08-08T10:50:13.815Z,51.22
2023-08-08T10:52:57.875Z,52.13
2023-08-08T10:55:34.375Z,53.18
2023-08-08T10:58:09.530Z,54.55
2023-08-08T11:00:42.468Z,55.07
2023-08-08T11:07:41.324Z,57.07
2023-08-08T11:10:14.001Z,56.87
2023-08-08T11:12:53.946Z,57.08
2023-08-08T11:15:28.754Z,57.09
2023-08-08T11:18:01.533Z,57.34
2023-08-08T11:20:35.274Z,57.41
2023-08-08T11:23:11.546Z,57.05
2023-08-08T11:25:43.861Z,56.95
2023-08-08T11:28:16.260Z,57.01
2023-08-08T11:30:49.301Z,56.62
2023-08-08T11:33:21.125Z,55.92
2023-08-08T11:35:54.442Z,54.73
2023-08-08T11:38:26.263Z,55.18
2023-08-08T11:40:58.169Z,55.41
